createdAt,value
2018-03-24T00:00:55.727Z,0.00
2018-03-24T00:01:55.791Z,0.00
2018-03-24T00:02:55.863Z,0.00
2018-03-24T00:03:55.911Z,0.00
2018-03-24T00:04:55.967Z,0.00
2018-03-24T00:05:56.043Z,0.00
2018-03-24T00:06:56.127Z,0.00
2018-03-24T00:07:56.155Z,0.00
2018-03-24T00:08:56.211Z,0.00
2018-03-24T00:09:56.275Z,0.00
2018-03-24T00:10:56.335Z,0.00
2018-03-24T00:11:56.407Z,0.00
2018-03-24T00:12:56.467Z,0.00
2018-03-24T00:13:56.523Z,0.00
2018-03-24T00:14:56.579Z,0.00
2018-03-24T00:15:56.659Z,0.00
2018-03-24T00:16:56.711Z,0.00
2018-03-24T00:17:56.767Z,0.00
2018-03-24T00:18:56.823Z,0.00
2018-03-24T00:19:56.875Z,0.00
2018-03-24T00:20:56.951Z,0.00
2018-03-24T00:21:57.040Z,0.00
2018-03-24T00:22:57.168Z,0.00
2018-03-24T00:23:59.700Z,0.00
2018-03-24T00:24:57.215Z,0.00
2018-03-24T00:25:57.301Z,0.00
2018-03-24T00:26:57.500Z,0.00
2018-03-24T00:27:57.396Z,0.00
2018-03-24T00:28:57.472Z,0.00
2018-03-24T00:29:57.516Z,0.00
2018-03-24T00:30:57.616Z,0.00
2018-03-24T00:31:57.682Z,0.00
2018-03-24T00:32:57.743Z,0.00
2018-03-24T00:33:57.808Z,0.00
2018-03-24T00:34:57.928Z,0.00
2018-03-24T00:35:57.888Z,0.00
2018-03-24T00:36:57.968Z,0.00
2018-03-24T00:37:58.024Z,0.00
2018-03-24T00:38:58.060Z,0.00
2018-03-24T00:39:58.116Z,0.00
2018-03-24T00:40:58.180Z,0.00
2018-03-24T00:41:58.428Z,0.00
2018-03-24T00:42:58.309Z,0.00
2018-03-24T00:43:58.365Z,0.00
2018-03-24T00:44:58.433Z,0.00
2018-03-24T00:45:58.471Z,0.00
2018-03-24T00:46:58.612Z,0.00
2018-03-24T00:47:58.616Z,0.00
2018-03-24T00:48:58.689Z,0.00
2018-03-24T00:49:58.766Z,0.00
2018-03-24T00:50:58.812Z,0.00
2018-03-24T00:51:59.141Z,0.00
2018-03-24T00:52:58.968Z,0.00
2018-03-24T00:53:59.009Z,0.00
2018-03-24T00:54:59.047Z,0.00
2018-03-24T00:55:59.104Z,0.00
2018-03-24T00:56:59.164Z,0.00
2018-03-24T00:57:59.280Z,0.00
2018-03-24T00:58:59.277Z,0.00
2018-03-24T00:59:59.406Z,0.00
2018-03-24T01:00:59.457Z,0.00
2018-03-24T01:01:59.459Z,0.00
2018-03-24T01:02:59.537Z,0.00
2018-03-24T01:03:59.609Z,0.00
2018-03-24T01:04:59.679Z,0.00
2018-03-24T01:05:59.697Z,0.00
2018-03-24T01:06:59.797Z,0.00
2018-03-24T01:07:59.829Z,0.00
2018-03-24T01:08:59.914Z,0.00
2018-03-24T01:09:59.970Z,0.00
2018-03-24T01:11:00.042Z,0.00
2018-03-24T01:12:00.110Z,0.00
2018-03-24T01:13:00.270Z,0.00
2018-03-24T01:14:00.190Z,0.00
2018-03-24T01:15:00.241Z,0.00
2018-03-24T01:16:00.305Z,0.00
2018-03-24T01:17:00.439Z,0.00
2018-03-24T01:18:00.434Z,0.00
2018-03-24T01:19:00.526Z,0.00
2018-03-24T01:20:00.553Z,0.00
2018-03-24T01:21:00.654Z,0.00
2018-03-24T01:22:00.678Z,0.00
2018-03-24T01:23:00.790Z,0.00
2018-03-24T01:24:00.814Z,0.00
2018-03-24T01:25:00.908Z,0.00
2018-03-24T01:26:00.922Z,0.00
2018-03-24T01:27:01.026Z,0.00
2018-03-24T01:28:01.070Z,0.00
2018-03-24T01:29:01.342Z,0.00
2018-03-24T01:30:01.166Z,0.00
2018-03-24T01:31:01.201Z,0.00
2018-03-24T01:32:01.327Z,0.00
2018-03-24T01:33:01.360Z,0.00
2018-03-24T01:34:01.455Z,0.00
2018-03-24T01:35:01.485Z,0.00
2018-03-24T01:36:01.519Z,0.00
2018-03-24T01:37:01.700Z,0.00
2018-03-24T01:38:01.690Z,0.00
2018-03-24T01:39:01.754Z,0.00
2018-03-24T01:40:01.777Z,0.00
2018-03-24T01:41:01.818Z,0.00
2018-03-24T01:42:01.887Z,0.00
2018-03-24T01:43:01.955Z,0.00
2018-03-24T01:44:02.068Z,0.00
2018-03-24T01:45:02.063Z,0.00
2018-03-24T01:46:02.151Z,0.00
2018-03-24T01:47:02.171Z,0.00
2018-03-24T01:48:02.286Z,0.00
2018-03-24T01:49:02.311Z,0.00
2018-03-24T01:50:02.387Z,0.00
2018-03-24T01:51:02.462Z,0.00
2018-03-24T01:52:02.507Z,0.00
2018-03-24T01:53:02.601Z,0.00
2018-03-24T01:54:02.621Z,0.00
2018-03-24T01:55:02.695Z,0.00
2018-03-24T01:56:02.760Z,0.00
2018-03-24T01:57:02.871Z,0.00
2018-03-24T01:58:02.875Z,0.00
2018-03-24T01:59:02.916Z,0.00
2018-03-24T02:00:02.987Z,0.00
2018-03-24T02:01:03.051Z,0.00
2018-03-24T02:02:03.107Z,0.00
2018-03-24T02:03:03.182Z,0.00
2018-03-24T02:04:03.200Z,0.00
2018-03-24T02:05:03.275Z,0.00
2018-03-24T02:06:04.166Z,0.00
2018-03-24T02:07:03.368Z,0.00
2018-03-24T02:08:03.483Z,0.00
2018-03-24T02:09:03.491Z,0.00
2018-03-24T02:10:03.636Z,0.00
2018-03-24T02:11:03.636Z,0.00
2018-03-24T02:12:03.667Z,0.00
2018-03-24T02:13:03.755Z,0.00
2018-03-24T02:14:03.813Z,0.00
2018-03-24T02:15:03.888Z,0.00
2018-03-24T02:16:03.964Z,0.00
2018-03-24T02:17:04.005Z,0.00
2018-03-24T02:18:04.059Z,0.00
2018-03-24T02:19:04.179Z,0.00
2018-03-24T02:20:04.172Z,0.00
2018-03-24T02:21:04.210Z,0.00
2018-03-24T02:22:04.328Z,0.00
2018-03-24T02:23:04.403Z,0.00
2018-03-24T02:24:04.440Z,0.00
2018-03-24T02:25:04.480Z,0.00
2018-03-24T02:26:04.760Z,0.00
2018-03-24T02:27:04.615Z,0.00
2018-03-24T02:28:04.648Z,0.00
2018-03-24T02:29:04.712Z,0.00
2018-03-24T02:30:04.777Z,0.00
2018-03-24T02:31:04.812Z,0.00
2018-03-24T02:32:04.872Z,0.00
2018-03-24T02:33:04.961Z,0.00
2018-03-24T02:34:05.096Z,0.00
2018-03-24T02:35:05.126Z,0.00
2018-03-24T02:36:05.167Z,0.00
2018-03-24T02:37:05.182Z,0.00
2018-03-24T02:38:05.241Z,0.00
2018-03-24T02:39:05.540Z,0.00
2018-03-24T02:40:05.459Z,0.00
2018-03-24T02:41:05.489Z,0.00
2018-03-24T02:42:05.477Z,0.00
2018-03-24T02:43:05.553Z,0.00
2018-03-24T02:44:05.648Z,0.00
2018-03-24T02:45:05.680Z,0.00
2018-03-24T02:46:05.745Z,0.00
2018-03-24T02:47:06.715Z,0.00
2018-03-24T02:48:05.879Z,0.00
2018-03-24T02:49:05.939Z,0.00
2018-03-24T02:50:05.965Z,0.00
2018-03-24T02:51:06.009Z,0.00
2018-03-24T02:52:06.074Z,0.00
2018-03-24T02:53:06.125Z,0.00
2018-03-24T02:54:06.345Z,0.00
2018-03-24T02:55:06.253Z,0.00
2018-03-24T02:56:06.305Z,0.00
2018-03-24T02:57:06.366Z,0.00
2018-03-24T02:58:06.429Z,0.00
2018-03-24T02:59:06.522Z,0.00
2018-03-24T03:00:06.550Z,0.00
2018-03-24T03:01:06.605Z,0.00
2018-03-24T03:02:06.673Z,0.00
2018-03-24T03:03:06.724Z,0.00
2018-03-24T03:04:06.798Z,0.00
2018-03-24T03:05:06.852Z,0.00
2018-03-24T03:06:06.920Z,0.00
2018-03-24T03:07:06.998Z,0.00
2018-03-24T03:08:07.026Z,0.00
2018-03-24T03:09:07.254Z,0.00
2018-03-24T03:10:07.153Z,0.00
2018-03-24T03:11:07.262Z,0.00
2018-03-24T03:12:07.266Z,0.00
2018-03-24T03:13:07.318Z,0.00
2018-03-24T03:14:07.390Z,0.00
2018-03-24T03:15:07.446Z,0.00
2018-03-24T03:16:07.498Z,0.00
2018-03-24T03:17:07.558Z,0.00
2018-03-24T03:18:07.622Z,0.00
2018-03-24T03:19:07.682Z,0.00
2018-03-24T03:20:07.744Z,0.00
2018-03-24T03:21:07.794Z,0.00
2018-03-24T03:22:07.854Z,0.00
2018-03-24T03:23:07.918Z,0.00
2018-03-24T03:24:07.982Z,0.00
2018-03-24T03:25:08.042Z,0.00
2018-03-24T03:26:08.095Z,0.00
2018-03-24T03:27:08.155Z,0.00
2018-03-24T03:28:08.210Z,0.00
2018-03-24T03:29:08.291Z,0.00
2018-03-24T03:30:08.338Z,0.00
2018-03-24T03:31:08.397Z,0.00
2018-03-24T03:32:08.451Z,0.00
2018-03-24T03:33:08.580Z,0.00
2018-03-24T03:34:08.579Z,0.00
2018-03-24T03:35:08.635Z,0.00
2018-03-24T03:36:08.687Z,0.00
2018-03-24T03:37:08.751Z,0.00
2018-03-24T03:38:08.811Z,0.00
2018-03-24T03:39:08.875Z,0.00
2018-03-24T03:40:08.934Z,0.00
2018-03-24T03:41:08.991Z,0.00
2018-03-24T03:42:09.047Z,0.00
2018-03-24T03:43:09.106Z,0.00
2018-03-24T03:44:09.178Z,0.00
2018-03-24T03:45:09.223Z,0.00
2018-03-24T03:46:09.284Z,0.00
2018-03-24T03:47:09.343Z,0.00
2018-03-24T03:48:09.404Z,0.00
2018-03-24T03:49:09.467Z,0.00
2018-03-24T03:50:09.527Z,0.00
2018-03-24T03:51:09.584Z,0.00
2018-03-24T03:52:09.644Z,0.00
2018-03-24T03:53:09.699Z,0.00
2018-03-24T03:54:09.768Z,0.00
2018-03-24T03:55:09.827Z,0.00
2018-03-24T03:56:09.880Z,0.00
2018-03-24T03:57:09.939Z,0.00
2018-03-24T03:58:10.008Z,0.00
2018-03-24T03:59:10.063Z,0.00
2018-03-24T04:00:10.124Z,0.00
2018-03-24T04:01:10.176Z,0.00
2018-03-24T04:02:10.236Z,0.00
2018-03-24T04:03:10.296Z,0.00
2018-03-24T04:04:10.360Z,0.00
2018-03-24T04:05:10.420Z,0.00
2018-03-24T04:06:10.472Z,0.00
2018-03-24T04:07:10.532Z,0.00
2018-03-24T04:08:10.596Z,0.00
2018-03-24T04:09:10.660Z,0.00
2018-03-24T04:10:10.716Z,0.00
2018-03-24T04:11:10.772Z,0.00
2018-03-24T04:12:10.828Z,0.00
2018-03-24T04:13:10.892Z,0.00
2018-03-24T04:14:10.956Z,0.00
2018-03-24T04:15:11.021Z,0.00
2018-03-24T04:16:11.068Z,0.00
2018-03-24T04:17:11.128Z,0.00
2018-03-24T04:18:11.184Z,0.00
2018-03-24T04:19:11.260Z,0.00
2018-03-24T04:20:11.308Z,0.00
2018-03-24T04:21:11.364Z,0.00
2018-03-24T04:22:11.425Z,0.00
2018-03-24T04:23:11.485Z,0.00
2018-03-24T04:24:11.548Z,0.00
2018-03-24T04:25:11.613Z,0.00
2018-03-24T04:26:11.665Z,0.00
2018-03-24T04:27:11.725Z,0.00
2018-03-24T04:28:11.784Z,0.00
2018-03-24T04:29:11.856Z,0.00
2018-03-24T04:30:11.909Z,0.00
2018-03-24T04:31:11.957Z,0.00
2018-03-24T04:32:12.021Z,0.00
2018-03-24T04:33:12.077Z,0.00
2018-03-24T04:34:12.253Z,0.00
2018-03-24T04:35:12.197Z,0.00
2018-03-24T04:36:12.258Z,0.00
2018-03-24T04:37:12.314Z,0.00
2018-03-24T04:38:12.382Z,0.00
2018-03-24T04:39:12.445Z,0.00
2018-03-24T04:40:12.497Z,0.00
2018-03-24T04:41:12.553Z,0.00
2018-03-24T04:42:12.609Z,0.00
2018-03-24T04:43:12.674Z,0.00
2018-03-24T04:44:12.737Z,0.00
2018-03-24T04:45:12.795Z,0.00
2018-03-24T04:46:12.845Z,0.00
2018-03-24T04:47:12.909Z,0.00
2018-03-24T04:48:12.970Z,0.00
2018-03-24T04:49:13.029Z,0.00
2018-03-24T04:50:13.093Z,0.00
2018-03-24T04:51:13.142Z,0.00
2018-03-24T04:52:13.198Z,0.00
2018-03-24T04:53:13.257Z,0.00
2018-03-24T04:54:13.333Z,0.00
2018-03-24T04:55:13.387Z,0.00
2018-03-24T04:56:13.442Z,0.00
2018-03-24T04:57:13.493Z,0.00
2018-03-24T04:58:13.553Z,0.00
2018-03-24T04:59:13.622Z,0.00
2018-03-24T05:00:13.682Z,0.00
2018-03-24T05:01:13.730Z,0.00
2018-03-24T05:02:13.804Z,0.00
2018-03-24T05:03:13.850Z,0.00
2018-03-24T05:04:13.918Z,0.00
2018-03-24T05:05:13.974Z,0.00
2018-03-24T05:06:14.022Z,0.00
2018-03-24T05:07:14.086Z,0.00
2018-03-24T05:08:14.146Z,0.00
2018-03-24T05:09:14.356Z,0.00
2018-03-24T05:10:14.270Z,0.00
2018-03-24T05:11:14.322Z,0.00
2018-03-24T05:12:14.382Z,0.00
2018-03-24T05:13:14.439Z,0.00
2018-03-24T05:14:14.507Z,0.00
2018-03-24T05:15:14.566Z,0.00
2018-03-24T05:16:14.626Z,0.00
2018-03-24T05:17:14.675Z,0.00
2018-03-24T05:18:14.742Z,0.00
2018-03-24T05:19:14.803Z,0.00
2018-03-24T05:20:14.859Z,0.00
2018-03-24T05:21:14.915Z,0.00
2018-03-24T05:22:14.971Z,0.00
2018-03-24T05:23:15.039Z,0.00
2018-03-24T05:24:15.252Z,0.00
2018-03-24T05:25:15.149Z,0.00
2018-03-24T05:26:15.242Z,0.00
2018-03-24T05:27:15.267Z,0.00
2018-03-24T05:28:15.323Z,0.00
2018-03-24T05:29:15.394Z,0.00
2018-03-24T05:30:15.447Z,0.00
2018-03-24T05:31:15.511Z,5.63
2018-03-24T05:32:15.559Z,5.63
2018-03-24T05:33:15.627Z,5.63
2018-03-24T05:34:15.687Z,5.63
2018-03-24T05:35:15.751Z,5.63
2018-03-24T05:36:15.795Z,5.63
2018-03-24T05:37:15.855Z,5.63
2018-03-24T05:38:15.915Z,5.63
2018-03-24T05:39:15.979Z,5.63
2018-03-24T05:40:16.036Z,5.63
2018-03-24T05:41:16.091Z,5.63
2018-03-24T05:42:16.147Z,11.25
2018-03-24T05:43:16.448Z,11.25
2018-03-24T05:44:16.276Z,11.25
2018-03-24T05:45:16.432Z,11.25
2018-03-24T05:46:16.384Z,11.25
2018-03-24T05:47:16.444Z,11.25
2018-03-24T05:48:16.504Z,11.25
2018-03-24T05:49:16.564Z,11.25
2018-03-24T05:50:16.628Z,11.25
2018-03-24T05:51:16.688Z,11.25
2018-03-24T05:52:16.740Z,16.88
2018-03-24T05:53:16.796Z,16.88
2018-03-24T05:54:16.860Z,16.88
2018-03-24T05:55:16.928Z,16.88
2018-03-24T05:56:16.980Z,16.88
2018-03-24T05:57:17.044Z,22.50
2018-03-24T05:58:17.092Z,22.50
2018-03-24T05:59:17.156Z,22.50
2018-03-24T06:00:17.524Z,22.50
2018-03-24T06:01:17.277Z,22.50
2018-03-24T06:02:17.336Z,22.50
2018-03-24T06:03:17.388Z,22.50
2018-03-24T06:04:17.456Z,22.50
2018-03-24T06:05:17.508Z,22.50
2018-03-24T06:06:17.808Z,22.50
2018-03-24T06:07:17.629Z,22.50
2018-03-24T06:08:17.684Z,28.13
2018-03-24T06:09:17.745Z,28.13
2018-03-24T06:10:17.805Z,28.13
2018-03-24T06:11:17.873Z,28.13
2018-03-24T06:12:17.929Z,28.13
2018-03-24T06:13:17.981Z,28.13
2018-03-24T06:14:18.041Z,28.13
2018-03-24T06:15:18.103Z,33.75
2018-03-24T06:16:18.177Z,33.75
2018-03-24T06:17:18.225Z,39.38
2018-03-24T06:18:18.281Z,39.38
2018-03-24T06:19:18.340Z,39.38
2018-03-24T06:20:18.401Z,39.38
2018-03-24T06:21:18.465Z,39.38
2018-03-24T06:22:18.525Z,39.38
2018-03-24T06:23:18.578Z,39.38
2018-03-24T06:24:18.637Z,45.00
2018-03-24T06:25:18.698Z,45.00
2018-03-24T06:26:18.761Z,45.00
2018-03-24T06:27:18.825Z,45.00
2018-03-24T06:28:18.881Z,50.63
2018-03-24T06:29:18.929Z,50.63
2018-03-24T06:30:18.997Z,56.25
2018-03-24T06:31:19.061Z,56.25
2018-03-24T06:32:19.127Z,56.25
2018-03-24T06:33:19.175Z,56.25
2018-03-24T06:34:19.234Z,61.88
2018-03-24T06:35:19.293Z,61.88
2018-03-24T06:36:19.361Z,61.88
2018-03-24T06:37:19.421Z,61.88
2018-03-24T06:38:19.470Z,67.50
2018-03-24T06:39:19.553Z,67.50
2018-03-24T06:40:19.590Z,67.50
2018-03-24T06:41:19.659Z,73.13
2018-03-24T06:42:19.718Z,73.13
2018-03-24T06:43:19.769Z,73.13
2018-03-24T06:44:19.834Z,78.75
2018-03-24T06:45:19.890Z,78.75
2018-03-24T06:46:19.954Z,78.75
2018-03-24T06:47:20.014Z,73.13
2018-03-24T06:48:20.073Z,78.75
2018-03-24T06:49:20.174Z,78.75
2018-03-24T06:50:20.186Z,78.75
2018-03-24T06:51:20.246Z,84.38
2018-03-24T06:52:20.466Z,84.38
2018-03-24T06:53:20.370Z,90.00
2018-03-24T06:54:20.430Z,95.63
2018-03-24T06:55:20.498Z,95.63
2018-03-24T06:56:20.546Z,95.63
2018-03-24T06:57:20.625Z,95.63
2018-03-24T06:58:20.674Z,95.63
2018-03-24T06:59:20.735Z,95.63
2018-03-24T07:00:20.782Z,101.25
2018-03-24T07:01:20.846Z,101.25
2018-03-24T07:02:20.951Z,106.88
2018-03-24T07:03:20.987Z,106.88
2018-03-24T07:04:21.030Z,106.88
2018-03-24T07:05:21.095Z,101.25
2018-03-24T07:06:21.147Z,101.25
2018-03-24T07:07:21.418Z,95.63
2018-03-24T07:08:21.415Z,95.63
2018-03-24T07:09:21.335Z,101.25
2018-03-24T07:10:21.395Z,101.25
2018-03-24T07:11:21.459Z,106.88
2018-03-24T07:12:21.511Z,112.50
2018-03-24T07:13:21.595Z,112.50
2018-03-24T07:14:21.635Z,112.50
2018-03-24T07:15:21.695Z,106.88
2018-03-24T07:16:21.751Z,106.88
2018-03-24T07:17:21.812Z,112.50
2018-03-24T07:18:21.875Z,106.88
2018-03-24T07:19:21.941Z,95.63
2018-03-24T07:20:21.988Z,90.00
2018-03-24T07:21:22.047Z,84.38
2018-03-24T07:22:22.107Z,84.38
2018-03-24T07:23:22.195Z,84.38
2018-03-24T07:24:22.252Z,84.38
2018-03-24T07:25:22.295Z,84.38
2018-03-24T07:26:22.432Z,84.38
2018-03-24T07:27:22.428Z,84.38
2018-03-24T07:28:22.492Z,84.38
2018-03-24T07:29:22.544Z,84.38
2018-03-24T07:30:22.612Z,84.38
2018-03-24T07:31:22.652Z,84.38
2018-03-24T07:32:22.769Z,84.38
2018-03-24T07:33:22.780Z,84.38
2018-03-24T07:34:22.841Z,84.38
2018-03-24T07:35:22.896Z,84.38
2018-03-24T07:36:22.997Z,84.38
2018-03-24T07:37:23.020Z,84.38
2018-03-24T07:38:23.084Z,90.00
2018-03-24T07:39:23.152Z,90.00
2018-03-24T07:40:23.200Z,90.00
2018-03-24T07:41:23.268Z,90.00
2018-03-24T07:42:23.316Z,90.00
2018-03-24T07:43:23.411Z,95.63
2018-03-24T07:44:23.444Z,95.63
2018-03-24T07:45:23.553Z,95.63
2018-03-24T07:46:23.556Z,95.63
2018-03-24T07:47:23.612Z,95.63
2018-03-24T07:48:23.684Z,101.25
2018-03-24T07:49:23.744Z,101.25
2018-03-24T07:50:23.792Z,101.25
2018-03-24T07:51:23.865Z,101.25
2018-03-24T07:52:23.928Z,101.25
2018-03-24T07:53:23.981Z,101.25
2018-03-24T07:54:24.117Z,106.88
2018-03-24T07:55:24.096Z,106.88
2018-03-24T07:56:24.169Z,106.88
2018-03-24T07:57:24.237Z,106.88
2018-03-24T07:58:24.424Z,106.88
2018-03-24T07:59:24.341Z,106.88
2018-03-24T08:00:24.393Z,112.50
2018-03-24T08:01:24.465Z,112.50
2018-03-24T08:02:24.517Z,112.50
2018-03-24T08:03:24.592Z,112.50
2018-03-24T08:04:24.641Z,112.50
2018-03-24T08:05:24.761Z,112.50
2018-03-24T08:06:24.769Z,118.13
2018-03-24T08:07:24.809Z,118.13
2018-03-24T08:08:24.889Z,118.13
2018-03-24T08:09:24.949Z,118.13
2018-03-24T08:10:24.989Z,118.13
2018-03-24T08:11:25.057Z,118.13
2018-03-24T08:12:25.121Z,118.13
2018-03-24T08:13:25.181Z,123.75
2018-03-24T08:14:25.298Z,123.75
2018-03-24T08:15:25.294Z,123.75
2018-03-24T08:16:25.358Z,123.75
2018-03-24T08:17:25.418Z,123.75
2018-03-24T08:18:25.526Z,129.38
2018-03-24T08:19:25.573Z,129.38
2018-03-24T08:20:25.625Z,129.38
2018-03-24T08:21:25.666Z,135.00
2018-03-24T08:22:25.742Z,135.00
2018-03-24T08:23:25.806Z,135.00
2018-03-24T08:24:25.930Z,135.00
2018-03-24T08:25:25.922Z,135.00
2018-03-24T08:26:25.958Z,135.00
2018-03-24T08:27:26.034Z,135.00
2018-03-24T08:28:26.094Z,135.00
2018-03-24T08:29:26.166Z,135.00
2018-03-24T08:30:26.271Z,140.63
2018-03-24T08:31:26.266Z,140.63
2018-03-24T08:32:26.334Z,140.63
2018-03-24T08:33:26.396Z,140.63
2018-03-24T08:34:26.466Z,146.25
2018-03-24T08:35:26.510Z,146.25
2018-03-24T08:36:26.566Z,146.25
2018-03-24T08:37:26.618Z,146.25
2018-03-24T08:38:26.712Z,146.25
2018-03-24T08:39:26.775Z,146.25
2018-03-24T08:40:26.814Z,151.88
2018-03-24T08:41:26.890Z,151.88
2018-03-24T08:42:26.959Z,151.88
2018-03-24T08:43:27.010Z,151.88
2018-03-24T08:44:27.059Z,151.88
2018-03-24T08:45:27.110Z,151.88
2018-03-24T08:46:27.179Z,157.50
2018-03-24T08:47:27.243Z,157.50
2018-03-24T08:48:28.023Z,157.50
2018-03-24T08:49:27.671Z,157.50
2018-03-24T08:50:27.459Z,163.13
2018-03-24T08:51:27.515Z,163.13
2018-03-24T08:52:27.549Z,157.50
2018-03-24T08:53:27.623Z,157.50
2018-03-24T08:54:27.715Z,163.13
2018-03-24T08:55:27.783Z,163.13
2018-03-24T08:56:27.816Z,163.13
2018-03-24T08:57:27.908Z,168.75
2018-03-24T08:58:27.963Z,168.75
2018-03-24T08:59:27.989Z,168.75
2018-03-24T09:00:28.107Z,168.75
2018-03-24T09:01:28.172Z,174.38
2018-03-24T09:02:28.464Z,174.38
2018-03-24T09:03:28.240Z,174.38
2018-03-24T09:04:28.455Z,174.38
2018-03-24T09:05:28.568Z,174.38
2018-03-24T09:06:28.704Z,174.38
2018-03-24T09:07:28.576Z,174.38
2018-03-24T09:08:28.564Z,180.00
2018-03-24T09:09:28.632Z,180.00
2018-03-24T09:10:28.656Z,180.00
2018-03-24T09:11:28.712Z,180.00
2018-03-24T09:12:28.768Z,180.00
2018-03-24T09:13:28.820Z,185.63
2018-03-24T09:14:28.896Z,185.63
2018-03-24T09:15:29.000Z,191.25
2018-03-24T09:16:29.005Z,196.88
2018-03-24T09:17:29.074Z,196.88
2018-03-24T09:18:29.120Z,208.13
2018-03-24T09:19:29.220Z,202.50
2018-03-24T09:20:29.244Z,191.25
2018-03-24T09:21:29.304Z,191.25
2018-03-24T09:22:29.382Z,191.25
2018-03-24T09:23:29.440Z,191.25
2018-03-24T09:24:29.504Z,191.25
2018-03-24T09:25:29.572Z,196.88
2018-03-24T09:26:29.613Z,191.25
2018-03-24T09:27:29.733Z,191.25
2018-03-24T09:28:29.756Z,202.50
2018-03-24T09:29:29.848Z,202.50
2018-03-24T09:30:29.877Z,213.75
2018-03-24T09:31:29.933Z,219.38
2018-03-24T09:32:29.997Z,219.38
2018-03-24T09:33:30.068Z,208.13
2018-03-24T09:34:30.477Z,202.50
2018-03-24T09:35:30.165Z,196.88
2018-03-24T09:36:30.305Z,196.88
2018-03-24T09:37:30.285Z,196.88
2018-03-24T09:38:30.397Z,196.88
2018-03-24T09:39:30.402Z,196.88
2018-03-24T09:40:30.529Z,196.88
2018-03-24T09:41:30.557Z,202.50
2018-03-24T09:42:30.599Z,208.13
2018-03-24T09:43:30.681Z,213.75
2018-03-24T09:44:30.734Z,213.75
2018-03-24T09:45:30.794Z,219.38
2018-03-24T09:46:30.873Z,225.00
2018-03-24T09:47:30.942Z,225.00
2018-03-24T09:48:31.129Z,236.25
2018-03-24T09:49:31.038Z,236.25
2018-03-24T09:50:31.106Z,241.88
2018-03-24T09:51:31.162Z,241.88
2018-03-24T09:52:31.214Z,247.50
2018-03-24T09:53:31.298Z,253.13
2018-03-24T09:54:31.418Z,258.75
2018-03-24T09:55:31.436Z,264.38
2018-03-24T09:56:31.474Z,270.00
2018-03-24T09:57:31.522Z,270.00
2018-03-24T09:58:31.650Z,275.63
2018-03-24T09:59:31.650Z,281.25
2018-03-24T10:00:31.734Z,281.25
2018-03-24T10:01:31.781Z,275.63
2018-03-24T10:02:31.830Z,275.63
2018-03-24T10:03:31.882Z,281.25
2018-03-24T10:04:31.954Z,286.88
2018-03-24T10:05:32.047Z,281.25
2018-03-24T10:06:32.084Z,292.50
2018-03-24T10:07:32.134Z,298.13
2018-03-24T10:08:32.266Z,303.75
2018-03-24T10:09:32.359Z,309.38
2018-03-24T10:10:32.342Z,309.38
2018-03-24T10:11:32.499Z,309.38
2018-03-24T10:12:32.447Z,309.38
2018-03-24T10:13:32.539Z,309.38
2018-03-24T10:14:32.570Z,309.38
2018-03-24T10:15:32.623Z,309.38
2018-03-24T10:16:32.710Z,320.63
2018-03-24T10:17:32.746Z,326.25
2018-03-24T10:18:32.803Z,326.25
2018-03-24T10:19:32.883Z,331.88
2018-03-24T10:20:32.930Z,337.50
2018-03-24T10:21:33.003Z,348.75
2018-03-24T10:22:33.067Z,343.13
2018-03-24T10:23:33.119Z,360.00
2018-03-24T10:24:33.187Z,365.63
2018-03-24T10:25:33.231Z,376.88
2018-03-24T10:26:33.319Z,376.88
2018-03-24T10:27:33.363Z,376.88
2018-03-24T10:28:33.423Z,376.88
2018-03-24T10:29:33.483Z,382.50
2018-03-24T10:30:33.564Z,382.50
2018-03-24T10:31:33.627Z,388.13
2018-03-24T10:32:33.689Z,393.75
2018-03-24T10:33:33.739Z,399.38
2018-03-24T10:34:33.796Z,410.63
2018-03-24T10:35:33.880Z,421.88
2018-03-24T10:36:33.939Z,433.13
2018-03-24T10:37:33.991Z,444.38
2018-03-24T10:38:34.047Z,450.00
2018-03-24T10:39:34.112Z,455.63
2018-03-24T10:40:34.172Z,450.00
2018-03-24T10:41:34.240Z,461.25
2018-03-24T10:42:34.363Z,478.13
2018-03-24T10:43:34.364Z,472.50
2018-03-24T10:44:34.440Z,461.25
2018-03-24T10:45:34.523Z,478.13
2018-03-24T10:46:34.552Z,489.38
2018-03-24T10:47:34.628Z,495.00
2018-03-24T10:48:34.676Z,489.38
2018-03-24T10:49:34.950Z,483.75
2018-03-24T10:50:34.796Z,506.25
2018-03-24T10:51:34.976Z,540.00
2018-03-24T10:52:34.932Z,517.50
2018-03-24T10:53:35.000Z,523.13
2018-03-24T10:54:35.060Z,540.00
2018-03-24T10:55:35.140Z,573.75
2018-03-24T10:56:35.176Z,579.38
2018-03-24T10:57:35.320Z,568.13
2018-03-24T10:58:35.320Z,562.50
2018-03-24T10:59:35.360Z,562.50
2018-03-24T11:00:35.416Z,551.25
2018-03-24T11:01:36.692Z,545.63
2018-03-24T11:02:35.561Z,551.25
2018-03-24T11:03:37.240Z,556.88
2018-03-24T11:04:35.673Z,562.50
2018-03-24T11:05:35.773Z,556.88
2018-03-24T11:06:35.944Z,568.13
2018-03-24T11:07:35.873Z,562.50
2018-03-24T11:08:36.437Z,568.13
2018-03-24T11:09:36.017Z,562.50
2018-03-24T11:10:36.187Z,579.38
2018-03-24T11:11:36.124Z,596.25
2018-03-24T11:12:36.173Z,579.38
2018-03-24T11:13:36.365Z,556.88
2018-03-24T11:14:36.300Z,545.63
2018-03-24T11:15:36.369Z,540.00
2018-03-24T11:16:36.437Z,545.63
2018-03-24T11:17:36.497Z,545.63
2018-03-24T11:18:36.561Z,551.25
2018-03-24T11:19:36.629Z,573.75
2018-03-24T11:20:36.689Z,579.38
2018-03-24T11:21:36.753Z,573.75
2018-03-24T11:22:36.814Z,579.38
2018-03-24T11:23:36.881Z,585.00
2018-03-24T11:24:36.945Z,579.38
2018-03-24T11:25:37.005Z,585.00
2018-03-24T11:26:37.089Z,607.50
2018-03-24T11:27:37.136Z,855.00
2018-03-24T11:28:37.349Z,2188.13
2018-03-24T11:29:37.261Z,3189.38
2018-03-24T11:30:37.333Z,3200.63
2018-03-24T11:31:37.385Z,3228.75
2018-03-24T11:32:37.453Z,3189.38
2018-03-24T11:33:37.650Z,3251.25
2018-03-24T11:34:37.610Z,3178.13
2018-03-24T11:35:37.658Z,3650.63
2018-03-24T11:36:37.706Z,3763.13
2018-03-24T11:37:37.778Z,3965.63
2018-03-24T11:38:37.842Z,3982.50
2018-03-24T11:39:37.914Z,4005.00
2018-03-24T11:40:37.986Z,4286.25
2018-03-24T11:41:38.050Z,4072.50
2018-03-24T11:42:38.110Z,3864.38
2018-03-24T11:43:38.178Z,3870.00
2018-03-24T11:44:38.358Z,3515.63
2018-03-24T11:45:38.318Z,3661.88
2018-03-24T11:46:38.390Z,3982.50
2018-03-24T11:47:38.458Z,3965.63
2018-03-24T11:48:38.526Z,3965.63
2018-03-24T11:49:38.610Z,3954.38
2018-03-24T11:50:38.678Z,3965.63
2018-03-24T11:51:38.738Z,4072.50
2018-03-24T11:52:38.810Z,4061.25
2018-03-24T11:53:38.882Z,4185.00
2018-03-24T11:54:38.958Z,4021.88
2018-03-24T11:55:39.037Z,4005.00
2018-03-24T11:56:39.136Z,4050.00
2018-03-24T11:57:39.174Z,3982.50
2018-03-24T11:58:39.250Z,4117.50
2018-03-24T11:59:39.373Z,4072.50
2018-03-24T12:00:39.389Z,3796.88
2018-03-24T12:01:39.459Z,3436.88
2018-03-24T12:02:39.531Z,3262.50
2018-03-24T12:03:39.610Z,3076.88
2018-03-24T12:04:39.687Z,3060.00
2018-03-24T12:05:39.762Z,3178.13
2018-03-24T12:06:39.827Z,3037.50
2018-03-24T12:07:39.899Z,2795.63
2018-03-24T12:08:39.983Z,3296.25
2018-03-24T12:09:40.055Z,1125.00
2018-03-24T12:10:40.131Z,703.13
2018-03-24T12:11:40.197Z,1333.13
2018-03-24T12:12:40.259Z,3594.38
2018-03-24T12:13:40.435Z,3583.13
2018-03-24T12:14:40.411Z,3633.75
2018-03-24T12:15:40.488Z,635.63
2018-03-24T12:16:40.560Z,596.25
2018-03-24T12:17:40.627Z,613.13
2018-03-24T12:18:40.696Z,562.50
2018-03-24T12:19:40.779Z,585.00
2018-03-24T12:20:40.840Z,635.63
2018-03-24T12:21:40.907Z,691.88
2018-03-24T12:22:40.979Z,720.00
2018-03-24T12:23:41.048Z,922.50
2018-03-24T12:24:41.271Z,742.50
2018-03-24T12:25:41.187Z,697.50
2018-03-24T12:26:41.265Z,652.50
2018-03-24T12:27:41.324Z,888.75
2018-03-24T12:28:41.394Z,1260.00
2018-03-24T12:29:41.468Z,4421.25
2018-03-24T12:30:41.536Z,4055.63
2018-03-24T12:31:41.596Z,4736.25
2018-03-24T12:32:41.665Z,4736.25
2018-03-24T12:33:41.737Z,2986.88
2018-03-24T12:34:41.808Z,1068.75
2018-03-24T12:35:41.879Z,967.50
2018-03-24T12:36:41.940Z,804.38
2018-03-24T12:37:42.012Z,922.50
2018-03-24T12:38:42.088Z,748.13
2018-03-24T12:39:42.319Z,686.25
2018-03-24T12:40:42.240Z,714.38
2018-03-24T12:41:42.284Z,675.00
2018-03-24T12:42:42.356Z,765.00
2018-03-24T12:43:42.435Z,652.50
2018-03-24T12:44:42.496Z,613.13
2018-03-24T12:45:42.570Z,646.88
2018-03-24T12:46:42.633Z,573.75
2018-03-24T12:47:42.696Z,596.25
2018-03-24T12:48:42.764Z,618.75
2018-03-24T12:49:42.844Z,663.75
2018-03-24T12:50:43.008Z,815.63
2018-03-24T12:51:42.969Z,978.75
2018-03-24T12:52:43.032Z,652.50